createdAt,value
2019-04-12T00:02:02.731Z,2.30
2019-04-12T00:04:32.039Z,2.30
2019-04-12T00:07:03.257Z,2.20
2019-04-12T00:09:33.512Z,2.10
2019-04-12T00:12:03.351Z,2.00
2019-04-12T00:14:33.108Z,2.00
2019-04-12T00:17:02.947Z,2.00
2019-04-12T00:19:32.673Z,2.00
2019-04-12T00:22:02.629Z,1.90
2019-04-12T00:24:34.911Z,1.90
2019-04-12T00:27:04.249Z,1.80
2019-04-12T00:29:34.034Z,1.80
2019-04-12T00:32:03.780Z,1.80
2019-04-12T00:34:33.485Z,1.80
2019-04-12T00:37:03.209Z,1.70
2019-04-12T00:39:33.318Z,1.70
2019-04-12T00:42:03.699Z,1.60
2019-04-12T00:44:34.352Z,1.60
2019-04-12T00:47:09.451Z,1.60
2019-04-12T00:49:40.582Z,1.60
2019-04-12T00:52:13.931Z,1.60
2019-04-12T00:54:46.641Z,1.70
2019-04-12T00:57:15.387Z,1.60
2019-04-12T00:59:47.477Z,1.50
2019-04-12T01:02:54.241Z,1.60
2019-04-12T01:05:34.917Z,1.60
2019-04-12T01:08:05.467Z,1.60
2019-04-12T01:10:37.589Z,1.50
2019-04-12T01:13:08.355Z,1.60
2019-04-12T01:15:39.225Z,1.60
2019-04-12T01:18:09.501Z,1.60
2019-04-12T01:20:40.029Z,1.60
2019-04-12T01:23:11.324Z,1.50
2019-04-12T01:25:44.393Z,1.50
2019-04-12T01:28:12.796Z,1.50
2019-04-12T01:30:42.765Z,1.50
2019-04-12T01:33:14.852Z,1.40
2019-04-12T01:35:44.037Z,1.40
2019-04-12T01:38:13.841Z,1.50
2019-04-12T01:40:43.961Z,1.60
2019-04-12T01:43:14.393Z,1.60
2019-04-12T01:45:44.126Z,1.80
2019-04-12T01:48:13.799Z,1.80
2019-04-12T01:50:44.077Z,1.90
2019-04-12T01:53:14.184Z,2.00
2019-04-12T01:55:43.892Z,2.00
2019-04-12T01:58:13.600Z,2.00
2019-04-12T02:00:43.381Z,2.00
2019-04-12T02:03:12.997Z,2.10
2019-04-12T02:05:43.529Z,2.10
2019-04-12T02:08:13.369Z,2.20
2019-04-12T02:10:44.356Z,2.20
2019-04-12T02:13:14.134Z,2.20
2019-04-12T02:15:44.228Z,2.20
2019-04-12T02:18:14.120Z,2.30
2019-04-12T02:20:44.052Z,2.30
2019-04-12T02:23:14.027Z,2.30
2019-04-12T02:25:44.850Z,2.30
2019-04-12T02:28:14.621Z,2.40
2019-04-12T02:30:46.556Z,2.40
2019-04-12T02:33:16.681Z,2.40
2019-04-12T02:35:47.991Z,2.40
2019-04-12T02:38:18.085Z,2.40
2019-04-12T02:40:50.498Z,2.40
2019-04-12T02:43:23.858Z,2.40
2019-04-12T02:45:56.477Z,2.40
2019-04-12T02:48:44.689Z,2.40
2019-04-12T02:51:31.662Z,2.40
2019-04-12T02:54:14.402Z,2.50
2019-04-12T02:56:54.504Z,2.50
2019-04-12T02:59:27.796Z,2.50
2019-04-12T03:01:58.576Z,2.50
2019-04-12T03:04:28.489Z,2.50
2019-04-12T03:06:58.485Z,2.60
2019-04-12T03:09:31.249Z,2.60
2019-04-12T03:12:03.993Z,2.60
2019-04-12T03:14:35.461Z,2.60
2019-04-12T03:17:05.622Z,2.60
2019-04-12T03:19:35.777Z,2.60
2019-04-12T03:22:06.172Z,2.60
2019-04-12T03:24:37.109Z,2.60
2019-04-12T03:27:07.626Z,2.60
2019-04-12T03:29:37.757Z,2.60
2019-04-12T03:32:08.029Z,2.60
2019-04-12T03:34:38.097Z,2.60
2019-04-12T03:37:08.050Z,2.60
2019-04-12T03:39:38.159Z,2.60
2019-04-12T03:42:08.138Z,2.60
2019-04-12T03:44:38.558Z,2.70
2019-04-12T03:47:08.550Z,2.60
2019-04-12T03:49:39.436Z,2.60
2019-04-12T03:52:09.997Z,2.70
2019-04-12T03:54:40.317Z,2.70
2019-04-12T03:57:10.222Z,2.60
2019-04-12T03:59:40.094Z,2.60
2019-04-12T04:02:15.973Z,2.60
2019-04-12T04:04:46.093Z,2.60
2019-04-12T04:07:16.389Z,2.60
2019-04-12T04:09:46.374Z,2.60
2019-04-12T04:12:17.075Z,2.70
2019-04-12T04:14:46.809Z,2.70
2019-04-12T04:17:27.990Z,2.70
2019-04-12T04:20:20.092Z,2.70
2019-04-12T04:22:50.537Z,2.70
2019-04-12T04:25:38.486Z,2.70
2019-04-12T04:28:37.289Z,2.70
2019-04-12T04:31:14.581Z,2.70
2019-04-12T04:33:44.847Z,2.70
2019-04-12T04:36:14.982Z,2.70
2019-04-12T04:38:44.981Z,2.70
2019-04-12T04:41:15.060Z,2.70
2019-04-12T04:43:45.181Z,2.70
2019-04-12T04:46:15.542Z,2.70
2019-04-12T04:48:45.709Z,2.70
2019-04-12T04:51:17.013Z,2.80
2019-04-12T04:53:46.926Z,2.80
2019-04-12T04:56:17.077Z,2.80
2019-04-12T04:58:47.075Z,2.80
2019-04-12T05:01:17.176Z,2.80
2019-04-12T05:03:49.110Z,2.80
2019-04-12T05:06:19.174Z,2.90
2019-04-12T05:08:49.217Z,2.90
2019-04-12T05:11:19.369Z,2.90
2019-04-12T05:13:57.315Z,2.90
2019-04-12T05:16:27.337Z,2.90
2019-04-12T05:18:57.373Z,3.00
2019-04-12T05:21:27.611Z,3.00
2019-04-12T05:23:58.937Z,3.00
2019-04-12T05:26:29.191Z,3.00
2019-04-12T05:29:00.335Z,3.10
2019-04-12T05:31:32.040Z,3.10
2019-04-12T05:34:02.322Z,3.20
2019-04-12T05:36:32.535Z,3.20
2019-04-12T05:39:02.459Z,3.20
2019-04-12T05:41:32.225Z,3.20
2019-04-12T05:44:02.858Z,3.30
2019-04-12T05:46:58.402Z,3.30
2019-04-12T05:49:47.555Z,3.40
2019-04-12T05:52:20.394Z,3.40
2019-04-12T05:54:49.522Z,3.50
2019-04-12T05:57:19.753Z,3.50
2019-04-12T05:59:49.916Z,3.60
2019-04-12T06:03:13.043Z,3.70
2019-04-12T06:05:43.496Z,3.80
2019-04-12T06:08:13.771Z,3.90
2019-04-12T06:10:43.816Z,3.90
2019-04-12T06:13:14.700Z,3.80
2019-04-12T06:15:44.937Z,3.70
2019-04-12T06:18:15.059Z,3.60
2019-04-12T06:20:53.413Z,3.60
2019-04-12T06:23:23.212Z,3.70
2019-04-12T06:25:59.909Z,3.80
2019-04-12T06:28:29.807Z,3.90
2019-04-12T06:31:01.210Z,3.90
2019-04-12T06:33:31.554Z,3.80
2019-04-12T06:36:01.914Z,3.90
2019-04-12T06:38:32.034Z,3.90
2019-04-12T06:41:02.840Z,4.00
2019-04-12T06:43:32.897Z,3.90
2019-04-12T06:46:05.155Z,4.00
2019-04-12T06:48:35.051Z,4.10
2019-04-12T06:51:06.763Z,4.20
2019-04-12T06:53:36.668Z,4.10
2019-04-12T06:56:25.422Z,4.10
2019-04-12T06:58:55.678Z,4.30
2019-04-12T07:01:32.896Z,4.40
2019-04-12T07:04:23.917Z,4.60
2019-04-12T07:06:56.548Z,4.80
2019-04-12T07:09:27.181Z,4.70
2019-04-12T07:11:58.536Z,4.80
2019-04-12T07:14:29.608Z,4.70
2019-04-12T07:17:00.614Z,4.90
2019-04-12T07:19:31.497Z,5.00
2019-04-12T07:22:02.737Z,4.90
2019-04-12T07:24:32.678Z,4.80
2019-04-12T07:27:03.204Z,4.60
2019-04-12T07:29:34.625Z,4.50
2019-04-12T07:32:06.330Z,4.40
2019-04-12T07:34:36.396Z,4.50
2019-04-12T07:37:07.129Z,4.70
2019-04-12T07:39:37.275Z,4.90
2019-04-12T07:42:07.358Z,5.20
2019-04-12T07:44:38.387Z,5.30
2019-04-12T07:47:08.768Z,5.60
2019-04-12T07:49:39.491Z,5.60
2019-04-12T07:52:27.429Z,5.60
2019-04-12T07:55:20.686Z,5.60
2019-04-12T07:58:04.965Z,5.70
2019-04-12T08:00:43.832Z,5.30
2019-04-12T08:03:39.407Z,5.40
2019-04-12T08:06:34.811Z,5.40
2019-04-12T08:09:07.470Z,5.60
2019-04-12T08:11:37.718Z,5.80
2019-04-12T08:14:07.620Z,6.30
2019-04-12T08:16:37.619Z,6.50
2019-04-12T08:19:08.648Z,6.60
2019-04-12T08:21:39.380Z,6.40
2019-04-12T08:24:09.901Z,6.30
2019-04-12T08:26:39.904Z,6.40
2019-04-12T08:29:10.523Z,6.60
2019-04-12T08:31:40.932Z,6.70
2019-04-12T08:34:11.393Z,7.10
2019-04-12T08:36:41.903Z,6.90
2019-04-12T08:39:12.211Z,6.60
2019-04-12T08:41:43.901Z,6.70
2019-04-12T08:44:14.141Z,6.70
2019-04-12T08:46:44.807Z,6.90
2019-04-12T08:49:15.306Z,6.80
2019-04-12T08:51:45.462Z,6.70
2019-04-12T08:54:16.086Z,6.50
2019-04-12T08:56:50.803Z,6.50
2019-04-12T08:59:22.670Z,6.60
2019-04-12T09:01:53.351Z,6.90
2019-04-12T09:04:25.597Z,6.70
2019-04-12T09:06:57.888Z,6.50
2019-04-12T09:09:27.741Z,6.60
2019-04-12T09:11:57.543Z,6.70
2019-04-12T09:14:27.311Z,6.80
2019-04-12T09:16:56.918Z,6.50
2019-04-12T09:19:45.141Z,6.60
2019-04-12T09:22:34.204Z,7.10
2019-04-12T09:25:09.370Z,7.20
2019-04-12T09:27:39.051Z,7.20
2019-04-12T09:30:09.275Z,7.10
2019-04-12T09:32:39.439Z,7.00
2019-04-12T09:35:09.530Z,7.20
2019-04-12T09:37:39.500Z,7.10
2019-04-12T09:40:09.561Z,6.70
2019-04-12T09:42:40.576Z,6.50
2019-04-12T09:45:11.191Z,6.20
2019-04-12T09:47:41.009Z,6.10
2019-04-12T09:50:10.815Z,6.00
2019-04-12T09:52:40.570Z,6.30
2019-04-12T09:55:10.761Z,6.70
2019-04-12T09:57:40.621Z,7.20
2019-04-12T10:00:11.065Z,7.20
2019-04-12T10:02:42.536Z,7.30
2019-04-12T10:05:13.450Z,7.30
2019-04-12T10:07:43.070Z,7.30
2019-04-12T10:10:13.013Z,7.30
2019-04-12T10:12:43.168Z,7.20
2019-04-12T10:15:16.491Z,7.20
2019-04-12T10:17:46.528Z,7.30
2019-04-12T10:20:16.803Z,7.40
2019-04-12T10:22:47.367Z,7.40
2019-04-12T10:25:18.626Z,7.20
2019-04-12T10:27:53.818Z,7.30
2019-04-12T10:30:24.320Z,7.20
2019-04-12T10:32:54.234Z,7.40
2019-04-12T10:35:24.139Z,7.50
2019-04-12T10:37:56.147Z,7.60
2019-04-12T10:40:25.890Z,7.80
2019-04-12T10:43:00.750Z,8.00
2019-04-12T10:45:43.838Z,7.90
2019-04-12T10:48:20.050Z,7.80
2019-04-12T10:51:04.560Z,7.70
2019-04-12T10:53:49.269Z,8.00
2019-04-12T10:56:18.983Z,8.20
2019-04-12T10:59:02.186Z,8.30
2019-04-12T11:01:23.116Z,8.50
2019-04-12T11:03:52.858Z,8.50
2019-04-12T11:06:30.212Z,8.70
2019-04-12T11:08:54.531Z,8.40
2019-04-12T11:11:24.143Z,8.10
2019-04-12T11:13:53.758Z,7.90
2019-04-12T11:16:27.287Z,8.00
2019-04-12T11:18:57.835Z,8.10
2019-04-12T11:21:27.617Z,8.30
2019-04-12T11:23:59.638Z,8.60
2019-04-12T11:26:29.630Z,8.90
2019-04-12T11:29:02.209Z,9.10
2019-04-12T11:31:31.249Z,9.20
2019-04-12T11:34:01.012Z,9.00
2019-04-12T11:36:31.049Z,8.60
2019-04-12T11:39:00.789Z,8.50
2019-04-12T11:41:30.693Z,8.20
2019-04-12T11:44:00.437Z,8.30
2019-04-12T11:46:37.145Z,8.40
2019-04-12T11:49:01.933Z,8.30
2019-04-12T11:51:31.733Z,8.40
2019-04-12T11:54:03.105Z,8.70
2019-04-12T11:56:32.904Z,8.90
2019-04-12T11:59:03.301Z,8.80
2019-04-12T12:01:37.737Z,8.70
2019-04-12T12:04:20.033Z,8.60
2019-04-12T12:07:12.144Z,8.40
2019-04-12T12:10:03.121Z,8.30
2019-04-12T12:12:44.118Z,8.20
2019-04-12T12:15:23.652Z,8.10
2019-04-12T12:17:59.347Z,8.10
2019-04-12T12:20:30.044Z,7.90
2019-04-12T12:22:59.871Z,8.30
2019-04-12T12:25:29.675Z,8.90
2019-04-12T12:27:59.732Z,9.40
2019-04-12T12:30:29.777Z,9.20
2019-04-12T12:32:59.853Z,8.70
2019-04-12T12:35:29.954Z,8.60
2019-04-12T12:37:59.778Z,8.60
2019-04-12T12:40:29.473Z,8.70
2019-04-12T12:42:59.285Z,8.50
2019-04-12T12:45:29.246Z,8.60
2019-04-12T12:47:59.067Z,8.50
2019-04-12T12:50:28.929Z,8.30
2019-04-12T12:52:58.962Z,8.30
2019-04-12T12:55:28.800Z,8.40
2019-04-12T12:57:58.835Z,8.60
2019-04-12T13:00:29.021Z,8.70
2019-04-12T13:02:58.955Z,8.90
2019-04-12T13:05:29.266Z,9.00
2019-04-12T13:07:59.212Z,8.70
2019-04-12T13:10:29.172Z,8.50
2019-04-12T13:13:00.090Z,8.20
2019-04-12T13:15:29.974Z,8.20
2019-04-12T13:17:59.961Z,8.00
2019-04-12T13:20:31.425Z,7.80
2019-04-12T13:23:01.748Z,7.50
2019-04-12T13:25:31.601Z,7.40
2019-04-12T13:28:02.012Z,7.60
2019-04-12T13:30:46.432Z,7.90
2019-04-12T13:33:30.926Z,8.00
2019-04-12T13:36:09.909Z,8.20
2019-04-12T13:39:07.993Z,8.30
2019-04-12T13:41:38.227Z,8.50
2019-04-12T13:44:07.906Z,8.20
2019-04-12T13:46:37.560Z,8.20
2019-04-12T13:49:07.313Z,8.30
2019-04-12T13:51:37.241Z,8.00
2019-04-12T13:54:07.438Z,7.70
2019-04-12T13:56:37.230Z,7.70
2019-04-12T13:59:07.025Z,7.70
2019-04-12T14:01:36.885Z,7.50
2019-04-12T14:04:06.843Z,7.50
2019-04-12T14:06:36.899Z,7.50
2019-04-12T14:09:07.902Z,7.30
2019-04-12T14:11:37.512Z,7.00
2019-04-12T14:14:07.294Z,6.90
2019-04-12T14:16:37.127Z,6.90
2019-04-12T14:19:07.222Z,7.00
2019-04-12T14:21:37.135Z,7.10
2019-04-12T14:24:06.938Z,7.20
2019-04-12T14:26:36.713Z,7.10
2019-04-12T14:29:06.432Z,7.20
2019-04-12T14:31:41.037Z,7.10
2019-04-12T14:34:16.947Z,6.90
2019-04-12T14:37:01.635Z,6.90
2019-04-12T14:39:31.765Z,6.70
2019-04-12T14:42:01.920Z,6.80
2019-04-12T14:44:42.576Z,7.00
2019-04-12T14:47:27.638Z,7.10
2019-04-12T14:49:58.166Z,6.90
2019-04-12T14:52:28.362Z,6.70
2019-04-12T14:54:58.502Z,6.70
2019-04-12T14:57:28.227Z,6.50
2019-04-12T14:59:58.347Z,6.40
2019-04-12T15:02:33.482Z,6.50
2019-04-12T15:05:04.654Z,6.70
2019-04-12T15:07:34.472Z,6.70
2019-04-12T15:10:04.880Z,6.70
2019-04-12T15:12:34.858Z,6.50
2019-04-12T15:15:05.739Z,6.40
2019-04-12T15:17:35.583Z,6.40
2019-04-12T15:20:06.210Z,6.50
2019-04-12T15:22:36.059Z,6.30
2019-04-12T15:25:06.593Z,6.40
2019-04-12T15:27:36.377Z,6.40
2019-04-12T15:30:07.301Z,6.20
2019-04-12T15:32:37.177Z,6.00
2019-04-12T15:35:07.083Z,6.10
2019-04-12T15:37:37.216Z,6.20
2019-04-12T15:40:07.898Z,6.20
2019-04-12T15:42:37.878Z,6.30
2019-04-12T15:45:08.021Z,6.30
2019-04-12T15:47:37.745Z,6.30
2019-04-12T15:50:08.034Z,6.50
2019-04-12T15:52:38.009Z,6.50
2019-04-12T15:55:08.181Z,6.40
2019-04-12T15:57:39.498Z,6.40
2019-04-12T16:00:13.552Z,6.40
2019-04-12T16:02:43.563Z,6.40
2019-04-12T16:05:14.666Z,6.30
2019-04-12T16:07:52.141Z,6.60
2019-04-12T16:10:21.906Z,6.60
2019-04-12T16:13:34.727Z,6.40
2019-04-12T16:16:34.732Z,6.00
2019-04-12T16:19:04.619Z,6.00
2019-04-12T16:21:36.554Z,5.80
2019-04-12T16:24:07.497Z,5.80
2019-04-12T16:26:38.588Z,5.60
2019-04-12T16:29:18.865Z,5.60
2019-04-12T16:32:10.757Z,5.50
2019-04-12T16:35:02.768Z,5.50
2019-04-12T16:37:39.472Z,5.70
2019-04-12T16:40:10.076Z,5.70
2019-04-12T16:42:39.855Z,5.80
2019-04-12T16:45:09.764Z,5.90
2019-04-12T16:47:41.116Z,6.00
2019-04-12T16:50:11.201Z,5.70
2019-04-12T16:52:40.985Z,5.50
2019-04-12T16:55:12.410Z,5.30
2019-04-12T16:57:42.316Z,5.30
2019-04-12T17:00:12.845Z,5.10
2019-04-12T17:02:43.493Z,5.20
2019-04-12T17:05:13.739Z,5.10
2019-04-12T17:07:51.280Z,5.20
2019-04-12T17:10:15.156Z,5.20
2019-04-12T17:12:44.861Z,5.30
2019-04-12T17:15:15.358Z,5.30
2019-04-12T17:17:46.747Z,5.40
2019-04-12T17:20:18.062Z,5.20
2019-04-12T17:22:47.859Z,5.10
2019-04-12T17:25:17.742Z,5.00
2019-04-12T17:27:47.661Z,5.00
2019-04-12T17:30:17.896Z,4.80
2019-04-12T17:32:47.825Z,4.70
2019-04-12T17:35:17.770Z,4.60
2019-04-12T17:37:47.622Z,4.60
2019-04-12T17:40:17.372Z,4.50
2019-04-12T17:42:47.007Z,4.50
2019-04-12T17:45:16.925Z,4.30
2019-04-12T17:47:46.925Z,4.30
2019-04-12T17:50:38.724Z,4.10
2019-04-12T17:53:27.620Z,4.00
2019-04-12T17:55:59.953Z,4.00
2019-04-12T17:58:30.115Z,3.90
2019-04-12T18:01:03.315Z,3.90
2019-04-12T18:03:33.266Z,3.80
2019-04-12T18:06:03.031Z,3.70
2019-04-12T18:08:33.184Z,3.70
2019-04-12T18:11:03.856Z,3.70
2019-04-12T18:13:34.000Z,3.50
2019-04-12T18:16:03.896Z,3.60
2019-04-12T18:18:33.673Z,3.50
2019-04-12T18:21:03.448Z,3.40
2019-04-12T18:23:33.577Z,3.30
2019-04-12T18:26:03.381Z,3.20
2019-04-12T18:28:33.149Z,3.20
2019-04-12T18:31:03.016Z,3.20
2019-04-12T18:33:32.792Z,3.20
2019-04-12T18:36:02.898Z,3.10
2019-04-12T18:38:32.604Z,3.10
2019-04-12T18:41:02.260Z,3.00
2019-04-12T18:43:32.520Z,3.00
2019-04-12T18:46:02.344Z,3.00
2019-04-12T18:48:32.211Z,2.90
2019-04-12T18:51:02.011Z,2.90
2019-04-12T18:53:32.140Z,2.90
2019-04-12T18:56:02.250Z,2.90
2019-04-12T18:58:32.254Z,2.80
2019-04-12T19:01:01.948Z,2.80
2019-04-12T19:03:31.950Z,2.80
2019-04-12T19:06:13.680Z,2.80
2019-04-12T19:08:33.422Z,2.70
2019-04-12T19:11:03.548Z,2.70
2019-04-12T19:13:33.430Z,2.70
2019-04-12T19:16:03.983Z,2.70
2019-04-12T19:18:33.905Z,2.60
2019-04-12T19:21:03.868Z,2.60
2019-04-12T19:23:33.601Z,2.60
2019-04-12T19:26:03.399Z,2.50
2019-04-12T19:28:34.357Z,2.50
2019-04-12T19:31:04.642Z,2.60
2019-04-12T19:33:50.182Z,2.50
2019-04-12T19:36:37.587Z,2.50
2019-04-12T19:39:32.285Z,2.50
2019-04-12T19:42:02.893Z,2.40
2019-04-12T19:44:33.003Z,2.30
2019-04-12T19:47:02.954Z,2.30
2019-04-12T19:49:33.413Z,2.30
2019-04-12T19:52:03.218Z,2.20
2019-04-12T19:54:32.855Z,2.30
2019-04-12T19:57:02.855Z,2.30
2019-04-12T19:59:32.682Z,2.30
2019-04-12T20:02:02.463Z,2.20
2019-04-12T20:04:32.529Z,2.20
2019-04-12T20:07:02.660Z,2.20
2019-04-12T20:09:32.602Z,2.10
2019-04-12T20:12:12.307Z,2.10
2019-04-12T20:14:33.949Z,2.10
2019-04-12T20:17:03.984Z,2.00
2019-04-12T20:19:34.098Z,2.00
2019-04-12T20:22:03.948Z,2.00
2019-04-12T20:24:33.776Z,2.00
2019-04-12T20:27:03.506Z,2.00
2019-04-12T20:29:33.282Z,2.00
2019-04-12T20:32:03.001Z,1.90
2019-04-12T20:34:32.811Z,1.90
2019-04-12T20:37:02.780Z,1.90
2019-04-12T20:39:32.740Z,1.90
2019-04-12T20:42:02.563Z,1.90
2019-04-12T20:44:32.724Z,1.80
2019-04-12T20:47:02.596Z,1.80
2019-04-12T20:49:32.497Z,1.80
2019-04-12T20:52:02.559Z,1.80
2019-04-12T20:54:32.296Z,1.80
2019-04-12T20:57:02.078Z,1.70
2019-04-12T20:59:33.038Z,1.70
2019-04-12T21:02:03.155Z,1.70
2019-04-12T21:04:33.065Z,1.70
2019-04-12T21:07:02.871Z,1.70
2019-04-12T21:09:32.681Z,1.60
2019-04-12T21:12:02.464Z,1.60
2019-04-12T21:14:32.335Z,1.60
2019-04-12T21:17:02.129Z,1.60
2019-04-12T21:19:31.800Z,1.60
2019-04-12T21:22:01.602Z,1.60
2019-04-12T21:24:31.381Z,1.60
2019-04-12T21:27:01.080Z,1.60
2019-04-12T21:29:30.829Z,1.50
2019-04-12T21:32:00.579Z,1.50
2019-04-12T21:34:30.336Z,1.50
2019-04-12T21:37:00.110Z,1.50
2019-04-12T21:39:30.978Z,1.60
2019-04-12T21:42:01.439Z,1.60
2019-04-12T21:44:32.036Z,1.60
2019-04-12T21:47:01.746Z,1.70
2019-04-12T21:49:31.654Z,1.70
2019-04-12T21:52:01.571Z,1.70
2019-04-12T21:54:31.808Z,1.70
2019-04-12T21:57:01.569Z,1.60
2019-04-12T21:59:31.867Z,1.60
2019-04-12T22:02:01.787Z,1.60
2019-04-12T22:04:32.361Z,1.50
2019-04-12T22:07:02.194Z,1.50
2019-04-12T22:09:32.141Z,1.50
2019-04-12T22:12:01.841Z,1.50
2019-04-12T22:14:31.576Z,1.50
2019-04-12T22:17:01.343Z,1.50
2019-04-12T22:19:31.208Z,1.50
2019-04-12T22:22:02.627Z,1.50
2019-04-12T22:24:32.715Z,1.50
2019-04-12T22:27:02.693Z,1.50
2019-04-12T22:29:32.475Z,1.50
2019-04-12T22:32:04.966Z,1.60
2019-04-12T22:34:34.709Z,1.60
2019-04-12T22:37:04.386Z,1.70
2019-04-12T22:39:34.104Z,1.70
2019-04-12T22:42:03.879Z,1.80
2019-04-12T22:44:33.633Z,1.90
2019-04-12T22:47:03.432Z,1.90
2019-04-12T22:49:33.318Z,1.90
2019-04-12T22:52:02.993Z,1.90
2019-04-12T22:54:32.631Z,1.90
2019-04-12T22:57:02.322Z,1.80
2019-04-12T22:59:32.285Z,1.70
2019-04-12T23:02:01.968Z,1.60
2019-04-12T23:04:31.827Z,1.50
2019-04-12T23:07:01.574Z,1.40
2019-04-12T23:09:31.444Z,1.40
2019-04-12T23:12:01.158Z,1.30
2019-04-12T23:14:30.938Z,1.20
2019-04-12T23:17:00.731Z,1.10
2019-04-12T23:19:30.459Z,1.10
2019-04-12T23:22:00.521Z,1.00
2019-04-12T23:24:30.323Z,1.00
2019-04-12T23:27:00.337Z,1.00
2019-04-12T23:29:30.125Z,1.00
2019-04-12T23:32:02.310Z,0.90
2019-04-12T23:34:45.430Z,0.90
2019-04-12T23:37:15.607Z,0.90
2019-04-12T23:39:45.550Z,0.80
2019-04-12T23:42:15.282Z,0.80
2019-04-12T23:44:45.073Z,0.70
2019-04-12T23:47:15.298Z,0.70
2019-04-12T23:49:45.200Z,0.70
2019-04-12T23:52:15.039Z,0.70
2019-04-12T23:54:45.187Z,0.60
2019-04-12T23:57:14.937Z,0.60
2019-04-12T23:59:44.774Z,0.70
